Englishtown, New Jersey
Current Conditions -  °F | °C
As of 6:35 PM on Saturday 25 Oct 2014 (Local Time) from KBLM Reporting Station
Clear Clear  
Wind Chill: 63°   Ceiling: Unl
Heat Index: 63°   Visibility: 10mi
Dew Point: 43°   Wind: 8mph
Humidity: 48%   Direction: 220°SW
Pressure: 29.68"   Gusts: NA
Location:  40.3°N, 74.36°W
Report Text: KBLM 252235Z AUTO 22007KT 10SM CLR 17/06 A2968 RMK AO1
Loading
Personal Weather Stations






























Interactive Weather Map
Tropical Storm Tracking
New forecast layout! Learn more

10-Day Weather Forecast

Advertisements
Track Severe Weather on mobile